< < Back
Terminal Aerodrome Forecast


Current Version              Previous Versions:   1  2  3  4  5  6  7  8  9  

Terminal Aerodrome Forecast

828
FTUS42 KTAE 300527
TAFDHN
TAF
KDHN 300527Z 3006/0106 29004KT P6SM SCT050
     FM300900 00000KT 3SM BR SCT003
     FM301300 17008KT P6SM SCT020
     FM301800 19009KT P6SM SCT040
     FM010200 20004KT P6SM SCT250=

Latest METAR

663
SAUS70 KWBC 301700 RRD
MTRDHN
METAR KDHN 301653Z 19011KT 10SM CLR 29/18 A3000 RMK AO2 SLP153
T02940183


USA.gov is the U.S. government's official web portal to all federal, state and local government web resources and services.